sensor_id;sensor_type;location;lat;lon;timestamp;P1;durP1;ratioP1;P2;durP2;ratioP2
66402;SDS011;53212;52.112;5.144;2023-03-01T00:01:49;13.40;;;11.70;;
66402;SDS011;53212;52.112;5.144;2023-03-01T00:04:15;12.50;;;11.20;;
66402;SDS011;53212;52.112;5.144;2023-03-01T00:06:42;12.90;;;11.00;;
66402;SDS011;53212;52.112;5.144;2023-03-01T00:09:11;13.50;;;11.50;;
66402;SDS011;53212;52.112;5.144;2023-03-01T00:11:38;12.20;;;11.00;;
66402;SDS011;53212;52.112;5.144;2023-03-01T00:14:04;11.70;;;10.60;;
66402;SDS011;53212;52.112;5.144;2023-03-01T00:16:34;12.20;;;11.00;;
66402;SDS011;53212;52.112;5.144;2023-03-01T00:19:12;12.70;;;11.40;;
66402;SDS011;53212;52.112;5.144;2023-03-01T00:21:40;13.70;;;12.20;;
66402;SDS011;53212;52.112;5.144;2023-03-01T00:24:06;14.70;;;11.90;;
66402;SDS011;53212;52.112;5.144;2023-03-01T00:26:32;13.10;;;11.70;;
66402;SDS011;53212;52.112;5.144;2023-03-01T00:28:58;13.80;;;11.70;;
66402;SDS011;53212;52.112;5.144;2023-03-01T00:31:29;13.20;;;11.90;;
66402;SDS011;53212;52.112;5.144;2023-03-01T00:33:58;13.00;;;11.70;;
66402;SDS011;53212;52.112;5.144;2023-03-01T00:36:28;14.10;;;11.30;;
66402;SDS011;53212;52.112;5.144;2023-03-01T00:38:56;13.30;;;11.50;;
66402;SDS011;53212;52.112;5.144;2023-03-01T00:41:22;12.00;;;10.90;;
66402;SDS011;53212;52.112;5.144;2023-03-01T00:43:49;13.30;;;11.30;;
66402;SDS011;53212;52.112;5.144;2023-03-01T00:46:17;12.30;;;11.10;;
66402;SDS011;53212;52.112;5.144;2023-03-01T00:48:44;12.20;;;11.00;;
66402;SDS011;53212;52.112;5.144;2023-03-01T00:51:16;15.90;;;13.20;;
66402;SDS011;53212;52.112;5.144;2023-03-01T00:53:43;14.80;;;12.60;;
66402;SDS011;53212;52.112;5.144;2023-03-01T00:56:12;12.90;;;11.40;;
66402;SDS011;53212;52.112;5.144;2023-03-01T00:58:39;14.80;;;12.20;;
66402;SDS011;53212;52.112;5.144;2023-03-01T01:01:13;12.60;;;10.70;;
66402;SDS011;53212;52.112;5.144;2023-03-01T01:03:48;11.60;;;10.50;;
66402;SDS011;53212;52.112;5.144;2023-03-01T01:06:17;12.90;;;11.60;;
66402;SDS011;53212;52.112;5.144;2023-03-01T01:08:46;13.10;;;11.50;;
66402;SDS011;53212;52.112;5.144;2023-03-01T01:11:12;12.20;;;11.00;;
66402;SDS011;53212;52.112;5.144;2023-03-01T01:13:39;12.70;;;11.40;;
66402;SDS011;53212;52.112;5.144;2023-03-01T01:16:05;15.30;;;12.40;;
66402;SDS011;53212;52.112;5.144;2023-03-01T01:18:31;13.50;;;11.80;;
66402;SDS011;53212;52.112;5.144;2023-03-01T01:20:56;12.40;;;11.20;;
66402;SDS011;53212;52.112;5.144;2023-03-01T01:23:22;13.70;;;12.10;;
66402;SDS011;53212;52.112;5.144;2023-03-01T01:25:47;12.20;;;10.60;;
66402;SDS011;53212;52.112;5.144;2023-03-01T01:28:13;11.70;;;10.60;;
66402;SDS011;53212;52.112;5.144;2023-03-01T01:30:38;11.80;;;10.40;;
66402;SDS011;53212;52.112;5.144;2023-03-01T01:33:04;12.10;;;10.90;;
66402;SDS011;53212;52.112;5.144;2023-03-01T01:35:29;12.40;;;11.20;;
66402;SDS011;53212;52.112;5.144;2023-03-01T01:37:54;13.00;;;11.70;;
66402;SDS011;53212;52.112;5.144;2023-03-01T01:40:20;13.30;;;12.00;;
66402;SDS011;53212;52.112;5.144;2023-03-01T01:42:45;13.40;;;12.00;;
66402;SDS011;53212;52.112;5.144;2023-03-01T01:45:34;13.50;;;12.10;;
66402;SDS011;53212;52.112;5.144;2023-03-01T01:48:05;17.10;;;13.00;;
66402;SDS011;53212;52.112;5.144;2023-03-01T01:50:35;14.70;;;13.20;;
66402;SDS011;53212;52.112;5.144;2023-03-01T01:53:24;13.20;;;11.90;;
66402;SDS011;53212;52.112;5.144;2023-03-01T01:55:56;13.30;;;11.90;;
66402;SDS011;53212;52.112;5.144;2023-03-01T01:58:26;15.80;;;12.50;;
66402;SDS011;53212;52.112;5.144;2023-03-01T02:00:54;14.40;;;12.90;;
66402;SDS011;53212;52.112;5.144;2023-03-01T02:03:26;14.60;;;12.90;;
66402;SDS011;53212;52.112;5.144;2023-03-01T02:06:07;15.40;;;13.10;;
66402;SDS011;53212;52.112;5.144;2023-03-01T02:08:40;14.20;;;12.90;;
66402;SDS011;53212;52.112;5.144;2023-03-01T02:11:07;14.20;;;12.70;;
66402;SDS011;53212;52.112;5.144;2023-03-01T02:13:35;15.50;;;13.00;;
66402;SDS011;53212;52.112;5.144;2023-03-01T02:16:07;16.90;;;12.60;;
66402;SDS011;53212;52.112;5.144;2023-03-01T02:18:34;14.10;;;12.60;;
66402;SDS011;53212;52.112;5.144;2023-03-01T02:27:11;14.70;;;13.20;;
66402;SDS011;53212;52.112;5.144;2023-03-01T02:29:37;14.30;;;12.70;;
66402;SDS011;53212;52.112;5.144;2023-03-01T02:32:02;14.90;;;13.40;;
66402;SDS011;53212;52.112;5.144;2023-03-01T02:34:29;14.20;;;12.80;;
66402;SDS011;53212;52.112;5.144;2023-03-01T02:37:09;14.10;;;12.50;;
66402;SDS011;53212;52.112;5.144;2023-03-01T02:39:42;15.40;;;13.40;;
66402;SDS011;53212;52.112;5.144;2023-03-01T02:42:19;14.20;;;12.60;;
66402;SDS011;53212;52.112;5.144;2023-03-01T02:44:49;13.10;;;11.90;;
66402;SDS011;53212;52.112;5.144;2023-03-01T02:47:15;14.30;;;12.50;;
66402;SDS011;53212;52.112;5.144;2023-03-01T02:49:40;14.80;;;13.00;;
66402;SDS011;53212;52.112;5.144;2023-03-01T02:52:22;14.20;;;12.70;;
66402;SDS011;53212;52.112;5.144;2023-03-01T02:57:44;15.00;;;12.80;;
66402;SDS011;53212;52.112;5.144;2023-03-01T03:00:13;16.80;;;13.60;;
66402;SDS011;53212;52.112;5.144;2023-03-01T03:02:52;18.00;;;14.30;;
66402;SDS011;53212;52.112;5.144;2023-03-01T03:05:24;17.30;;;14.40;;
66402;SDS011;53212;52.112;5.144;2023-03-01T03:07:54;17.30;;;14.40;;
66402;SDS011;53212;52.112;5.144;2023-03-01T03:10:28;14.20;;;12.70;;
66402;SDS011;53212;52.112;5.144;2023-03-01T03:12:57;13.80;;;12.50;;
66402;SDS011;53212;52.112;5.144;2023-03-01T03:15:25;14.30;;;12.80;;
66402;SDS011;53212;52.112;5.144;2023-03-01T03:17:52;15.40;;;13.40;;
66402;SDS011;53212;52.112;5.144;2023-03-01T03:20:21;15.20;;;13.30;;
66402;SDS011;53212;52.112;5.144;2023-03-01T03:22:51;17.10;;;14.20;;
66402;SDS011;53212;52.112;5.144;2023-03-01T03:25:19;18.90;;;14.40;;
66402;SDS011;53212;52.112;5.144;2023-03-01T03:27:47;15.20;;;13.80;;
66402;SDS011;53212;52.112;5.144;2023-03-01T03:30:16;14.60;;;13.10;;
66402;SDS011;53212;52.112;5.144;2023-03-01T03:32:45;15.20;;;13.60;;
66402;SDS011;53212;52.112;5.144;2023-03-01T03:35:22;17.80;;;13.20;;
66402;SDS011;53212;52.112;5.144;2023-03-01T03:37:48;15.40;;;13.10;;
66402;SDS011;53212;52.112;5.144;2023-03-01T03:40:35;14.40;;;12.90;;
66402;SDS011;53212;52.112;5.144;2023-03-01T03:43:04;14.40;;;13.00;;
66402;SDS011;53212;52.112;5.144;2023-03-01T03:45:31;13.10;;;11.70;;
66402;SDS011;53212;52.112;5.144;2023-03-01T03:47:58;14.80;;;13.20;;
66402;SDS011;53212;52.112;5.144;2023-03-01T03:50:25;15.50;;;13.90;;
66402;SDS011;53212;52.112;5.144;2023-03-01T03:52:51;16.90;;;15.10;;
66402;SDS011;53212;52.112;5.144;2023-03-01T03:55:16;17.40;;;14.00;;
66402;SDS011;53212;52.112;5.144;2023-03-01T03:57:45;16.40;;;14.00;;
66402;SDS011;53212;52.112;5.144;2023-03-01T04:00:18;15.00;;;13.00;;
66402;SDS011;53212;52.112;5.144;2023-03-01T04:02:45;16.90;;;13.90;;
66402;SDS011;53212;52.112;5.144;2023-03-01T04:05:13;14.90;;;13.30;;
66402;SDS011;53212;52.112;5.144;2023-03-01T04:07:40;15.40;;;13.10;;
66402;SDS011;53212;52.112;5.144;2023-03-01T04:10:10;13.90;;;12.40;;
66402;SDS011;53212;52.112;5.144;2023-03-01T04:12:37;15.40;;;13.40;;
66402;SDS011;53212;52.112;5.144;2023-03-01T04:15:04;17.10;;;14.70;;
66402;SDS011;53212;52.112;5.144;2023-03-01T04:17:46;16.00;;;14.10;;
66402;SDS011;53212;52.112;5.144;2023-03-01T04:20:16;17.20;;;14.90;;
66402;SDS011;53212;52.112;5.144;2023-03-01T04:22:49;16.40;;;14.60;;
66402;SDS011;53212;52.112;5.144;2023-03-01T04:25:22;17.20;;;14.20;;
66402;SDS011;53212;52.112;5.144;2023-03-01T04:27:48;16.30;;;14.60;;
66402;SDS011;53212;52.112;5.144;2023-03-01T04:30:14;17.10;;;13.80;;
66402;SDS011;53212;52.112;5.144;2023-03-01T04:32:39;14.90;;;13.00;;
66402;SDS011;53212;52.112;5.144;2023-03-01T04:35:05;14.40;;;12.60;;
66402;SDS011;53212;52.112;5.144;2023-03-01T04:37:31;15.90;;;13.40;;
66402;SDS011;53212;52.112;5.144;2023-03-01T04:39:57;16.00;;;13.50;;
66402;SDS011;53212;52.112;5.144;2023-03-01T04:42:22;15.80;;;14.00;;
66402;SDS011;53212;52.112;5.144;2023-03-01T04:44:48;16.30;;;14.20;;
66402;SDS011;53212;52.112;5.144;2023-03-01T04:47:16;20.60;;;15.30;;
66402;SDS011;53212;52.112;5.144;2023-03-01T04:49:42;19.10;;;14.90;;
66402;SDS011;53212;52.112;5.144;2023-03-01T04:52:08;17.50;;;15.00;;
66402;SDS011;53212;52.112;5.144;2023-03-01T04:54:35;18.50;;;13.50;;
66402;SDS011;53212;52.112;5.144;2023-03-01T04:57:02;20.90;;;14.20;;
66402;SDS011;53212;52.112;5.144;2023-03-01T04:59:28;14.60;;;13.10;;
66402;SDS011;53212;52.112;5.144;2023-03-01T05:01:55;15.70;;;14.10;;
66402;SDS011;53212;52.112;5.144;2023-03-01T05:04:24;14.90;;;13.40;;
66402;SDS011;53212;52.112;5.144;2023-03-01T05:06:50;16.40;;;13.70;;
66402;SDS011;53212;52.112;5.144;2023-03-01T05:09:16;17.60;;;14.60;;
66402;SDS011;53212;52.112;5.144;2023-03-01T05:11:42;16.80;;;14.90;;
66402;SDS011;53212;52.112;5.144;2023-03-01T05:14:09;16.60;;;14.90;;
66402;SDS011;53212;52.112;5.144;2023-03-01T05:16:35;14.10;;;12.70;;
66402;SDS011;53212;52.112;5.144;2023-03-01T05:19:03;13.10;;;11.80;;
66402;SDS011;53212;52.112;5.144;2023-03-01T05:21:40;14.30;;;13.00;;
66402;SDS011;53212;52.112;5.144;2023-03-01T05:24:25;16.80;;;14.40;;
66402;SDS011;53212;52.112;5.144;2023-03-01T05:26:51;17.60;;;13.70;;
66402;SDS011;53212;52.112;5.144;2023-03-01T05:29:19;18.80;;;15.00;;
66402;SDS011;53212;52.112;5.144;2023-03-01T05:31:53;19.20;;;16.50;;
66402;SDS011;53212;52.112;5.144;2023-03-01T05:34:30;19.60;;;16.60;;
66402;SDS011;53212;52.112;5.144;2023-03-01T05:36:57;18.30;;;15.30;;
66402;SDS011;53212;52.112;5.144;2023-03-01T05:39:25;18.90;;;16.30;;
66402;SDS011;53212;52.112;5.144;2023-03-01T05:41:53;19.60;;;16.00;;
66402;SDS011;53212;52.112;5.144;2023-03-01T05:44:20;19.60;;;15.80;;
66402;SDS011;53212;52.112;5.144;2023-03-01T05:46:46;19.50;;;14.90;;
66402;SDS011;53212;52.112;5.144;2023-03-01T05:49:12;16.40;;;14.40;;
66402;SDS011;53212;52.112;5.144;2023-03-01T05:51:39;20.00;;;14.30;;
66402;SDS011;53212;52.112;5.144;2023-03-01T05:54:06;19.50;;;14.80;;
66402;SDS011;53212;52.112;5.144;2023-03-01T05:56:37;16.70;;;14.70;;
66402;SDS011;53212;52.112;5.144;2023-03-01T05:59:03;18.90;;;16.40;;
66402;SDS011;53212;52.112;5.144;2023-03-01T06:01:33;19.20;;;16.10;;
66402;SDS011;53212;52.112;5.144;2023-03-01T06:03:59;23.00;;;16.90;;
66402;SDS011;53212;52.112;5.144;2023-03-01T06:06:25;21.80;;;17.10;;
66402;SDS011;53212;52.112;5.144;2023-03-01T06:08:52;22.00;;;16.90;;
66402;SDS011;53212;52.112;5.144;2023-03-01T06:11:18;18.30;;;15.60;;
66402;SDS011;53212;52.112;5.144;2023-03-01T06:13:44;19.40;;;16.00;;
66402;SDS011;53212;52.112;5.144;2023-03-01T06:16:10;20.70;;;15.90;;
66402;SDS011;53212;52.112;5.144;2023-03-01T06:18:37;24.30;;;16.50;;
66402;SDS011;53212;52.112;5.144;2023-03-01T06:21:03;20.40;;;16.20;;
66402;SDS011;53212;52.112;5.144;2023-03-01T06:23:30;22.30;;;16.10;;
66402;SDS011;53212;52.112;5.144;2023-03-01T06:25:55;19.30;;;16.50;;
66402;SDS011;53212;52.112;5.144;2023-03-01T06:28:21;20.90;;;16.40;;
66402;SDS011;53212;52.112;5.144;2023-03-01T06:30:47;20.40;;;16.50;;
66402;SDS011;53212;52.112;5.144;2023-03-01T06:33:13;19.00;;;17.00;;
66402;SDS011;53212;52.112;5.144;2023-03-01T06:35:39;21.50;;;16.80;;
66402;SDS011;53212;52.112;5.144;2023-03-01T06:38:04;21.60;;;17.10;;
66402;SDS011;53212;52.112;5.144;2023-03-01T06:40:31;26.20;;;19.60;;
66402;SDS011;53212;52.112;5.144;2023-03-01T06:42:57;26.80;;;20.80;;
66402;SDS011;53212;52.112;5.144;2023-03-01T06:45:23;23.70;;;18.80;;
66402;SDS011;53212;52.112;5.144;2023-03-01T06:47:49;27.70;;;19.60;;
66402;SDS011;53212;52.112;5.144;2023-03-01T06:50:16;25.10;;;20.30;;
66402;SDS011;53212;52.112;5.144;2023-03-01T06:52:43;26.10;;;19.30;;
66402;SDS011;53212;52.112;5.144;2023-03-01T06:55:10;23.20;;;18.60;;
66402;SDS011;53212;52.112;5.144;2023-03-01T06:57:37;25.40;;;18.50;;
66402;SDS011;53212;52.112;5.144;2023-03-01T07:00:04;22.50;;;18.60;;
66402;SDS011;53212;52.112;5.144;2023-03-01T07:02:31;23.50;;;19.20;;
66402;SDS011;53212;52.112;5.144;2023-03-01T07:04:56;33.80;;;20.20;;
66402;SDS011;53212;52.112;5.144;2023-03-01T07:07:21;23.40;;;19.30;;
66402;SDS011;53212;52.112;5.144;2023-03-01T07:09:48;26.70;;;19.10;;
66402;SDS011;53212;52.112;5.144;2023-03-01T07:12:14;24.10;;;19.10;;
66402;SDS011;53212;52.112;5.144;2023-03-01T07:14:39;22.90;;;18.50;;
66402;SDS011;53212;52.112;5.144;2023-03-01T07:17:05;52.40;;;30.30;;
66402;SDS011;53212;52.112;5.144;2023-03-01T07:19:31;52.00;;;34.00;;
66402;SDS011;53212;52.112;5.144;2023-03-01T07:21:57;32.90;;;28.00;;
66402;SDS011;53212;52.112;5.144;2023-03-01T07:24:22;28.80;;;25.60;;
66402;SDS011;53212;52.112;5.144;2023-03-01T07:26:49;33.50;;;27.70;;
66402;SDS011;53212;52.112;5.144;2023-03-01T07:29:15;26.40;;;21.40;;
66402;SDS011;53212;52.112;5.144;2023-03-01T07:31:41;24.00;;;19.10;;
66402;SDS011;53212;52.112;5.144;2023-03-01T07:34:07;24.70;;;19.70;;
66402;SDS011;53212;52.112;5.144;2023-03-01T07:36:32;22.70;;;19.50;;
66402;SDS011;53212;52.112;5.144;2023-03-01T07:38:58;22.70;;;18.50;;
66402;SDS011;53212;52.112;5.144;2023-03-01T07:41:23;20.40;;;17.80;;
66402;SDS011;53212;52.112;5.144;2023-03-01T07:43:49;20.90;;;18.80;;
66402;SDS011;53212;52.112;5.144;2023-03-01T07:46:14;22.30;;;17.60;;
66402;SDS011;53212;52.112;5.144;2023-03-01T07:48:40;20.90;;;18.10;;
66402;SDS011;53212;52.112;5.144;2023-03-01T07:51:05;23.50;;;18.40;;
66402;SDS011;53212;52.112;5.144;2023-03-01T07:53:32;24.60;;;18.20;;
66402;SDS011;53212;52.112;5.144;2023-03-01T07:56:10;28.30;;;18.60;;
66402;SDS011;53212;52.112;5.144;2023-03-01T07:58:40;24.20;;;19.50;;
66402;SDS011;53212;52.112;5.144;2023-03-01T08:01:08;23.90;;;19.40;;
66402;SDS011;53212;52.112;5.144;2023-03-01T08:03:36;20.60;;;17.30;;
66402;SDS011;53212;52.112;5.144;2023-03-01T08:06:03;19.50;;;16.70;;
66402;SDS011;53212;52.112;5.144;2023-03-01T08:08:31;19.20;;;15.10;;
66402;SDS011;53212;52.112;5.144;2023-03-01T08:11:01;17.30;;;15.50;;
66402;SDS011;53212;52.112;5.144;2023-03-01T08:13:28;15.90;;;14.20;;
66402;SDS011;53212;52.112;5.144;2023-03-01T08:15:54;16.20;;;13.90;;
66402;SDS011;53212;52.112;5.144;2023-03-01T08:18:25;16.50;;;14.10;;
66402;SDS011;53212;52.112;5.144;2023-03-01T08:20:50;15.90;;;14.20;;
66402;SDS011;53212;52.112;5.144;2023-03-01T08:23:16;18.00;;;14.80;;
66402;SDS011;53212;52.112;5.144;2023-03-01T08:25:41;16.60;;;14.00;;
66402;SDS011;53212;52.112;5.144;2023-03-01T08:28:07;13.90;;;12.40;;
66402;SDS011;53212;52.112;5.144;2023-03-01T08:30:32;16.20;;;12.30;;
66402;SDS011;53212;52.112;5.144;2023-03-01T08:32:58;14.60;;;12.70;;
66402;SDS011;53212;52.112;5.144;2023-03-01T08:35:23;14.30;;;12.60;;
66402;SDS011;53212;52.112;5.144;2023-03-01T08:37:49;15.30;;;12.30;;
66402;SDS011;53212;52.112;5.144;2023-03-01T08:40:14;15.00;;;12.10;;
66402;SDS011;53212;52.112;5.144;2023-03-01T08:42:41;18.50;;;12.30;;
66402;SDS011;53212;52.112;5.144;2023-03-01T08:45:08;14.30;;;11.60;;
66402;SDS011;53212;52.112;5.144;2023-03-01T08:47:35;13.40;;;10.80;;
66402;SDS011;53212;52.112;5.144;2023-03-01T08:50:00;13.50;;;11.80;;
66402;SDS011;53212;52.112;5.144;2023-03-01T08:52:26;14.20;;;10.30;;
66402;SDS011;53212;52.112;5.144;2023-03-01T08:54:52;13.80;;;10.70;;
66402;SDS011;53212;52.112;5.144;2023-03-01T08:57:17;13.00;;;10.10;;
66402;SDS011;53212;52.112;5.144;2023-03-01T08:59:43;14.10;;;11.10;;
66402;SDS011;53212;52.112;5.144;2023-03-01T09:02:14;12.50;;;10.00;;
66402;SDS011;53212;52.112;5.144;2023-03-01T09:04:41;10.50;;;9.40;;
66402;SDS011;53212;52.112;5.144;2023-03-01T09:07:07;9.60;;;8.30;;
66402;SDS011;53212;52.112;5.144;2023-03-01T09:09:33;9.40;;;8.40;;
66402;SDS011;53212;52.112;5.144;2023-03-01T09:11:59;9.20;;;8.30;;
66402;SDS011;53212;52.112;5.144;2023-03-01T09:14:25;10.20;;;7.90;;
66402;SDS011;53212;52.112;5.144;2023-03-01T09:16:50;13.50;;;8.70;;
66402;SDS011;53212;52.112;5.144;2023-03-01T09:19:16;9.40;;;8.50;;
66402;SDS011;53212;52.112;5.144;2023-03-01T09:21:41;9.00;;;8.10;;
66402;SDS011;53212;52.112;5.144;2023-03-01T09:24:17;9.10;;;8.10;;
66402;SDS011;53212;52.112;5.144;2023-03-01T09:26:44;11.00;;;8.20;;
66402;SDS011;53212;52.112;5.144;2023-03-01T09:29:13;10.60;;;8.60;;
66402;SDS011;53212;52.112;5.144;2023-03-01T09:31:39;9.20;;;8.10;;
66402;SDS011;53212;52.112;5.144;2023-03-01T09:34:05;8.40;;;7.60;;
66402;SDS011;53212;52.112;5.144;2023-03-01T09:36:31;8.80;;;7.40;;
66402;SDS011;53212;52.112;5.144;2023-03-01T09:38:57;9.80;;;8.30;;
66402;SDS011;53212;52.112;5.144;2023-03-01T09:41:52;8.40;;;7.30;;
66402;SDS011;53212;52.112;5.144;2023-03-01T09:44:34;7.90;;;7.10;;
66402;SDS011;53212;52.112;5.144;2023-03-01T09:47:05;8.30;;;6.60;;
66402;SDS011;53212;52.112;5.144;2023-03-01T09:49:39;12.00;;;7.90;;
66402;SDS011;53212;52.112;5.144;2023-03-01T09:52:31;9.50;;;7.60;;
66402;SDS011;53212;52.112;5.144;2023-03-01T09:55:17;7.70;;;6.60;;
66402;SDS011;53212;52.112;5.144;2023-03-01T10:00:50;9.00;;;7.00;;
66402;SDS011;53212;52.112;5.144;2023-03-01T10:03:33;9.50;;;5.90;;
66402;SDS011;53212;52.112;5.144;2023-03-01T10:06:09;8.50;;;5.60;;
66402;SDS011;53212;52.112;5.144;2023-03-01T10:11:33;6.10;;;5.50;;
66402;SDS011;53212;52.112;5.144;2023-03-01T10:17:08;7.10;;;5.80;;
66402;SDS011;53212;52.112;5.144;2023-03-01T10:19:43;7.10;;;5.90;;
66402;SDS011;53212;52.112;5.144;2023-03-01T10:24:43;7.00;;;5.80;;
66402;SDS011;53212;52.112;5.144;2023-03-01T10:27:24;7.00;;;5.80;;
66402;SDS011;53212;52.112;5.144;2023-03-01T10:32:53;6.40;;;5.80;;
66402;SDS011;53212;52.112;5.144;2023-03-01T10:35:22;7.40;;;6.50;;
66402;SDS011;53212;52.112;5.144;2023-03-01T10:38:03;7.00;;;5.60;;
66402;SDS011;53212;52.112;5.144;2023-03-01T10:40:31;7.00;;;5.90;;
66402;SDS011;53212;52.112;5.144;2023-03-01T10:42:58;6.80;;;5.50;;
66402;SDS011;53212;52.112;5.144;2023-03-01T10:45:33;6.70;;;6.10;;
66402;SDS011;53212;52.112;5.144;2023-03-01T10:48:23;6.90;;;5.30;;
66402;SDS011;53212;52.112;5.144;2023-03-01T10:53:37;7.00;;;6.20;;
66402;SDS011;53212;52.112;5.144;2023-03-01T10:56:11;9.30;;;6.30;;
66402;SDS011;53212;52.112;5.144;2023-03-01T10:58:58;8.40;;;6.60;;
66402;SDS011;53212;52.112;5.144;2023-03-01T11:01:44;6.70;;;6.00;;
66402;SDS011;53212;52.112;5.144;2023-03-01T11:04:12;7.00;;;5.20;;
66402;SDS011;53212;52.112;5.144;2023-03-01T11:06:40;7.20;;;5.90;;
66402;SDS011;53212;52.112;5.144;2023-03-01T11:09:18;6.60;;;5.70;;
66402;SDS011;53212;52.112;5.144;2023-03-01T11:11:45;6.50;;;5.00;;
66402;SDS011;53212;52.112;5.144;2023-03-01T11:14:17;6.50;;;4.70;;
66402;SDS011;53212;52.112;5.144;2023-03-01T11:16:47;6.20;;;4.70;;
66402;SDS011;53212;52.112;5.144;2023-03-01T11:19:17;6.50;;;4.80;;
66402;SDS011;53212;52.112;5.144;2023-03-01T11:27:08;7.90;;;5.30;;
66402;SDS011;53212;52.112;5.144;2023-03-01T11:29:59;5.90;;;5.40;;
66402;SDS011;53212;52.112;5.144;2023-03-01T11:35:32;10.00;;;5.90;;
66402;SDS011;53212;52.112;5.144;2023-03-01T11:38:24;6.60;;;5.10;;
66402;SDS011;53212;52.112;5.144;2023-03-01T11:52:25;4.80;;;4.20;;
66402;SDS011;53212;52.112;5.144;2023-03-01T11:55:43;4.50;;;4.10;;
66402;SDS011;53212;52.112;5.144;2023-03-01T12:04:11;5.60;;;4.10;;
66402;SDS011;53212;52.112;5.144;2023-03-01T12:07:27;4.40;;;4.00;;
66402;SDS011;53212;52.112;5.144;2023-03-01T12:10:33;4.80;;;3.80;;
66402;SDS011;53212;52.112;5.144;2023-03-01T12:16:30;4.00;;;3.70;;
66402;SDS011;53212;52.112;5.144;2023-03-01T12:39:18;4.50;;;4.00;;
66402;SDS011;53212;52.112;5.144;2023-03-01T12:45:30;4.80;;;3.70;;
66402;SDS011;53212;52.112;5.144;2023-03-01T12:50:57;3.30;;;3.00;;
66402;SDS011;53212;52.112;5.144;2023-03-01T12:53:27;5.90;;;3.40;;
66402;SDS011;53212;52.112;5.144;2023-03-01T12:55:58;3.80;;;3.50;;
66402;SDS011;53212;52.112;5.144;2023-03-01T12:59:04;4.30;;;3.80;;
66402;SDS011;53212;52.112;5.144;2023-03-01T13:02:09;6.00;;;4.00;;
66402;SDS011;53212;52.112;5.144;2023-03-01T13:13:20;4.40;;;3.50;;
66402;SDS011;53212;52.112;5.144;2023-03-01T13:15:48;4.70;;;3.70;;
66402;SDS011;53212;52.112;5.144;2023-03-01T13:29:01;4.30;;;3.50;;
66402;SDS011;53212;52.112;5.144;2023-03-01T13:33:52;5.20;;;3.50;;
66402;SDS011;53212;52.112;5.144;2023-03-01T13:46:49;3.50;;;3.20;;
66402;SDS011;53212;52.112;5.144;2023-03-01T13:49:18;3.40;;;3.10;;
66402;SDS011;53212;52.112;5.144;2023-03-01T13:51:47;3.50;;;3.20;;
66402;SDS011;53212;52.112;5.144;2023-03-01T13:54:31;3.90;;;3.50;;
66402;SDS011;53212;52.112;5.144;2023-03-01T13:56:59;3.50;;;3.00;;
66402;SDS011;53212;52.112;5.144;2023-03-01T13:59:26;3.80;;;3.10;;
66402;SDS011;53212;52.112;5.144;2023-03-01T14:01:59;3.50;;;3.20;;
66402;SDS011;53212;52.112;5.144;2023-03-01T14:04:30;4.70;;;3.80;;
66402;SDS011;53212;52.112;5.144;2023-03-01T14:07:20;5.50;;;3.40;;
66402;SDS011;53212;52.112;5.144;2023-03-01T14:09:54;3.40;;;3.10;;
66402;SDS011;53212;52.112;5.144;2023-03-01T14:18:24;4.10;;;3.30;;
66402;SDS011;53212;52.112;5.144;2023-03-01T14:20:56;3.90;;;3.40;;
66402;SDS011;53212;52.112;5.144;2023-03-01T14:23:23;3.50;;;3.20;;
66402;SDS011;53212;52.112;5.144;2023-03-01T14:25:56;3.80;;;3.40;;
66402;SDS011;53212;52.112;5.144;2023-03-01T14:28:30;4.10;;;3.50;;
66402;SDS011;53212;52.112;5.144;2023-03-01T14:30:59;3.60;;;3.30;;
66402;SDS011;53212;52.112;5.144;2023-03-01T14:33:32;3.80;;;3.30;;
66402;SDS011;53212;52.112;5.144;2023-03-01T14:36:11;3.50;;;3.20;;
66402;SDS011;53212;52.112;5.144;2023-03-01T14:38:42;3.30;;;3.00;;
66402;SDS011;53212;52.112;5.144;2023-03-01T14:41:20;3.90;;;3.10;;
66402;SDS011;53212;52.112;5.144;2023-03-01T14:43:57;3.30;;;3.00;;
66402;SDS011;53212;52.112;5.144;2023-03-01T14:46:26;4.00;;;3.40;;
66402;SDS011;53212;52.112;5.144;2023-03-01T14:48:58;4.40;;;3.70;;
66402;SDS011;53212;52.112;5.144;2023-03-01T14:51:28;3.70;;;3.40;;
66402;SDS011;53212;52.112;5.144;2023-03-01T14:53:54;4.40;;;3.80;;
66402;SDS011;53212;52.112;5.144;2023-03-01T14:56:20;3.80;;;3.50;;
66402;SDS011;53212;52.112;5.144;2023-03-01T14:58:46;4.30;;;3.50;;
66402;SDS011;53212;52.112;5.144;2023-03-01T15:01:17;3.60;;;3.30;;
66402;SDS011;53212;52.112;5.144;2023-03-01T15:03:48;5.60;;;3.60;;
66402;SDS011;53212;52.112;5.144;2023-03-01T15:06:19;3.80;;;3.30;;
66402;SDS011;53212;52.112;5.144;2023-03-01T15:08:49;3.80;;;3.30;;
66402;SDS011;53212;52.112;5.144;2023-03-01T15:11:22;5.00;;;3.60;;
66402;SDS011;53212;52.112;5.144;2023-03-01T15:13:50;3.80;;;3.30;;
66402;SDS011;53212;52.112;5.144;2023-03-01T15:16:31;3.50;;;3.00;;
66402;SDS011;53212;52.112;5.144;2023-03-01T15:19:05;3.90;;;3.50;;
66402;SDS011;53212;52.112;5.144;2023-03-01T15:21:38;4.00;;;3.60;;
66402;SDS011;53212;52.112;5.144;2023-03-01T15:24:25;4.10;;;3.70;;
66402;SDS011;53212;52.112;5.144;2023-03-01T15:27:00;7.60;;;3.90;;
66402;SDS011;53212;52.112;5.144;2023-03-01T15:29:32;4.00;;;3.60;;
66402;SDS011;53212;52.112;5.144;2023-03-01T15:32:20;4.00;;;3.60;;
66402;SDS011;53212;52.112;5.144;2023-03-01T15:34:59;3.80;;;3.40;;
66402;SDS011;53212;52.112;5.144;2023-03-01T15:37:45;4.30;;;3.10;;
66402;SDS011;53212;52.112;5.144;2023-03-01T15:40:25;5.10;;;3.80;;
66402;SDS011;53212;52.112;5.144;2023-03-01T15:43:04;3.70;;;3.40;;
66402;SDS011;53212;52.112;5.144;2023-03-01T15:45:32;4.20;;;3.50;;
66402;SDS011;53212;52.112;5.144;2023-03-01T15:48:05;4.20;;;3.70;;
66402;SDS011;53212;52.112;5.144;2023-03-01T15:50:40;4.40;;;3.70;;
66402;SDS011;53212;52.112;5.144;2023-03-01T15:53:11;4.10;;;3.60;;
66402;SDS011;53212;52.112;5.144;2023-03-01T15:55:39;4.80;;;3.80;;
66402;SDS011;53212;52.112;5.144;2023-03-01T15:58:21;4.50;;;3.50;;
66402;SDS011;53212;52.112;5.144;2023-03-01T16:00:49;4.70;;;3.80;;
66402;SDS011;53212;52.112;5.144;2023-03-01T16:03:21;3.90;;;3.40;;
66402;SDS011;53212;52.112;5.144;2023-03-01T16:05:48;4.10;;;3.30;;
66402;SDS011;53212;52.112;5.144;2023-03-01T16:08:15;5.50;;;4.20;;
66402;SDS011;53212;52.112;5.144;2023-03-01T16:10:41;4.30;;;3.80;;
66402;SDS011;53212;52.112;5.144;2023-03-01T16:13:09;4.70;;;3.70;;
66402;SDS011;53212;52.112;5.144;2023-03-01T16:15:35;4.30;;;3.90;;
66402;SDS011;53212;52.112;5.144;2023-03-01T16:18:01;3.70;;;3.40;;
66402;SDS011;53212;52.112;5.144;2023-03-01T16:20:28;3.70;;;3.40;;
66402;SDS011;53212;52.112;5.144;2023-03-01T16:22:55;3.90;;;3.50;;
66402;SDS011;53212;52.112;5.144;2023-03-01T16:25:23;4.00;;;3.60;;
66402;SDS011;53212;52.112;5.144;2023-03-01T16:27:49;5.70;;;3.70;;
66402;SDS011;53212;52.112;5.144;2023-03-01T16:30:18;4.40;;;4.00;;
66402;SDS011;53212;52.112;5.144;2023-03-01T16:32:46;5.20;;;3.70;;
66402;SDS011;53212;52.112;5.144;2023-03-01T16:35:14;4.80;;;3.80;;
66402;SDS011;53212;52.112;5.144;2023-03-01T16:37:41;5.00;;;3.70;;
66402;SDS011;53212;52.112;5.144;2023-03-01T16:40:19;5.40;;;3.90;;
66402;SDS011;53212;52.112;5.144;2023-03-01T16:42:49;5.10;;;3.90;;
66402;SDS011;53212;52.112;5.144;2023-03-01T16:45:16;5.00;;;3.90;;
66402;SDS011;53212;52.112;5.144;2023-03-01T16:47:42;4.60;;;4.10;;
66402;SDS011;53212;52.112;5.144;2023-03-01T16:50:08;5.10;;;4.20;;